sensor_id;sensor_type;location;lat;lon;timestamp;temperature;humidity
45619;DHT22;31343;47.520;19.144;2023-05-08T00:00:20;11.50;99.90
45619;DHT22;31343;47.520;19.144;2023-05-08T00:02:46;11.50;99.90
45619;DHT22;31343;47.520;19.144;2023-05-08T00:05:12;11.50;99.90
45619;DHT22;31343;47.520;19.144;2023-05-08T00:07:38;11.50;99.90
45619;DHT22;31343;47.520;19.144;2023-05-08T00:10:05;11.50;99.90
45619;DHT22;31343;47.520;19.144;2023-05-08T00:12:31;11.50;99.90
45619;DHT22;31343;47.520;19.144;2023-05-08T00:14:57;11.50;99.90
45619;DHT22;31343;47.520;19.144;2023-05-08T00:17:23;11.20;99.90
45619;DHT22;31343;47.520;19.144;2023-05-08T00:19:48;11.10;99.90
45619;DHT22;31343;47.520;19.144;2023-05-08T00:22:14;11.10;99.90
45619;DHT22;31343;47.520;19.144;2023-05-08T00:24:40;11.20;99.90
45619;DHT22;31343;47.520;19.144;2023-05-08T00:27:06;11.30;99.90
45619;DHT22;31343;47.520;19.144;2023-05-08T00:29:33;11.40;99.90
45619;DHT22;31343;47.520;19.144;2023-05-08T00:31:59;11.50;99.90
45619;DHT22;31343;47.520;19.144;2023-05-08T00:34:25;11.50;99.90
45619;DHT22;31343;47.520;19.144;2023-05-08T00:36:51;11.50;99.90
45619;DHT22;31343;47.520;19.144;2023-05-08T00:39:17;11.50;99.90
45619;DHT22;31343;47.520;19.144;2023-05-08T00:41:43;11.50;99.90
45619;DHT22;31343;47.520;19.144;2023-05-08T00:44:08;11.50;99.90
45619;DHT22;31343;47.520;19.144;2023-05-08T00:46:35;11.50;99.90
45619;DHT22;31343;47.520;19.144;2023-05-08T00:49:02;11.50;99.90
45619;DHT22;31343;47.520;19.144;2023-05-08T00:51:29;11.50;99.90
45619;DHT22;31343;47.520;19.144;2023-05-08T00:53:56;11.50;99.90
45619;DHT22;31343;47.520;19.144;2023-05-08T00:56:24;11.40;99.90
45619;DHT22;31343;47.520;19.144;2023-05-08T00:58:50;11.40;99.90
45619;DHT22;31343;47.520;19.144;2023-05-08T01:01:16;11.40;99.90
45619;DHT22;31343;47.520;19.144;2023-05-08T01:03:43;11.40;99.90
45619;DHT22;31343;47.520;19.144;2023-05-08T01:06:09;11.40;99.90
45619;DHT22;31343;47.520;19.144;2023-05-08T01:08:35;11.40;99.90
45619;DHT22;31343;47.520;19.144;2023-05-08T01:14:23;11.40;99.90
45619;DHT22;31343;47.520;19.144;2023-05-08T01:16:57;11.20;99.90
45619;DHT22;31343;47.520;19.144;2023-05-08T01:22:46;11.30;99.90
45619;DHT22;31343;47.520;19.144;2023-05-08T01:33:58;11.20;99.90
45619;DHT22;31343;47.520;19.144;2023-05-08T01:36:55;11.20;99.90
45619;DHT22;31343;47.520;19.144;2023-05-08T01:42:23;11.10;99.90
45619;DHT22;31343;47.520;19.144;2023-05-08T01:44:58;11.10;99.90
45619;DHT22;31343;47.520;19.144;2023-05-08T01:47:28;11.20;99.90
45619;DHT22;31343;47.520;19.144;2023-05-08T01:50:13;11.20;99.90
45619;DHT22;31343;47.520;19.144;2023-05-08T01:52:53;11.00;99.90
45619;DHT22;31343;47.520;19.144;2023-05-08T01:55:30;10.90;99.90
45619;DHT22;31343;47.520;19.144;2023-05-08T01:57:57;10.80;99.90
45619;DHT22;31343;47.520;19.144;2023-05-08T02:00:25;10.90;99.90
45619;DHT22;31343;47.520;19.144;2023-05-08T02:02:53;10.80;99.90
45619;DHT22;31343;47.520;19.144;2023-05-08T02:05:23;10.90;99.90
45619;DHT22;31343;47.520;19.144;2023-05-08T02:07:51;10.80;99.90
45619;DHT22;31343;47.520;19.144;2023-05-08T02:10:19;10.80;99.90
45619;DHT22;31343;47.520;19.144;2023-05-08T02:12:47;10.80;99.90
45619;DHT22;31343;47.520;19.144;2023-05-08T02:15:15;10.80;99.90
45619;DHT22;31343;47.520;19.144;2023-05-08T02:17:43;10.80;99.90
45619;DHT22;31343;47.520;19.144;2023-05-08T02:20:11;10.80;99.90
45619;DHT22;31343;47.520;19.144;2023-05-08T02:22:42;10.80;99.90
45619;DHT22;31343;47.520;19.144;2023-05-08T02:25:10;10.90;99.90
45619;DHT22;31343;47.520;19.144;2023-05-08T02:27:44;10.90;99.90
45619;DHT22;31343;47.520;19.144;2023-05-08T02:30:13;10.80;99.90
45619;DHT22;31343;47.520;19.144;2023-05-08T02:32:42;10.90;99.90
45619;DHT22;31343;47.520;19.144;2023-05-08T02:35:13;11.00;99.90
45619;DHT22;31343;47.520;19.144;2023-05-08T02:37:42;10.90;99.90
45619;DHT22;31343;47.520;19.144;2023-05-08T02:40:09;11.00;99.90
45619;DHT22;31343;47.520;19.144;2023-05-08T02:42:36;11.00;99.90
45619;DHT22;31343;47.520;19.144;2023-05-08T02:45:02;11.00;99.90
45619;DHT22;31343;47.520;19.144;2023-05-08T02:48:35;11.00;99.90
45619;DHT22;31343;47.520;19.144;2023-05-08T02:51:03;11.00;99.90
45619;DHT22;31343;47.520;19.144;2023-05-08T02:53:36;11.00;99.90
45619;DHT22;31343;47.520;19.144;2023-05-08T02:56:11;10.90;99.90
45619;DHT22;31343;47.520;19.144;2023-05-08T02:59:43;10.80;99.90
45619;DHT22;31343;47.520;19.144;2023-05-08T03:01:49;10.80;99.90
45619;DHT22;31343;47.520;19.144;2023-05-08T03:04:25;10.90;99.90
45619;DHT22;31343;47.520;19.144;2023-05-08T03:06:55;10.90;99.90
45619;DHT22;31343;47.520;19.144;2023-05-08T03:09:23;10.80;99.90
45619;DHT22;31343;47.520;19.144;2023-05-08T03:11:58;10.80;99.90
45619;DHT22;31343;47.520;19.144;2023-05-08T03:14:27;10.70;99.90
45619;DHT22;31343;47.520;19.144;2023-05-08T03:16:56;10.70;99.90
45619;DHT22;31343;47.520;19.144;2023-05-08T03:19:27;10.70;99.90
45619;DHT22;31343;47.520;19.144;2023-05-08T03:21:55;10.70;99.90
45619;DHT22;31343;47.520;19.144;2023-05-08T03:24:22;10.80;99.90
45619;DHT22;31343;47.520;19.144;2023-05-08T03:26:49;10.80;99.90
45619;DHT22;31343;47.520;19.144;2023-05-08T03:29:15;10.80;99.90
45619;DHT22;31343;47.520;19.144;2023-05-08T03:31:43;10.80;99.90
45619;DHT22;31343;47.520;19.144;2023-05-08T03:34:11;10.80;99.90
45619;DHT22;31343;47.520;19.144;2023-05-08T03:36:38;10.90;99.90
45619;DHT22;31343;47.520;19.144;2023-05-08T03:39:05;11.00;99.90
45619;DHT22;31343;47.520;19.144;2023-05-08T03:41:32;11.00;99.90
45619;DHT22;31343;47.520;19.144;2023-05-08T03:43:58;11.00;99.90
45619;DHT22;31343;47.520;19.144;2023-05-08T03:46:24;11.10;99.90
45619;DHT22;31343;47.520;19.144;2023-05-08T03:48:50;11.20;99.90
45619;DHT22;31343;47.520;19.144;2023-05-08T03:51:17;11.20;99.90
45619;DHT22;31343;47.520;19.144;2023-05-08T03:53:43;11.20;99.90
45619;DHT22;31343;47.520;19.144;2023-05-08T03:56:09;11.30;99.90
45619;DHT22;31343;47.520;19.144;2023-05-08T03:58:47;11.40;99.90
45619;DHT22;31343;47.520;19.144;2023-05-08T04:04:16;11.30;99.90
45619;DHT22;31343;47.520;19.144;2023-05-08T04:07:14;11.30;99.90
45619;DHT22;31343;47.520;19.144;2023-05-08T04:15:21;11.50;99.90
45619;DHT22;31343;47.520;19.144;2023-05-08T04:18:20;11.50;99.90
45619;DHT22;31343;47.520;19.144;2023-05-08T04:20:47;11.60;99.90
45619;DHT22;31343;47.520;19.144;2023-05-08T04:23:17;11.60;99.90
45619;DHT22;31343;47.520;19.144;2023-05-08T04:25:45;11.70;99.90
45619;DHT22;31343;47.520;19.144;2023-05-08T04:28:13;11.60;99.90
45619;DHT22;31343;47.520;19.144;2023-05-08T04:30:40;11.60;99.90
45619;DHT22;31343;47.520;19.144;2023-05-08T04:33:07;11.60;99.90
45619;DHT22;31343;47.520;19.144;2023-05-08T04:35:33;11.70;99.90
45619;DHT22;31343;47.520;19.144;2023-05-08T04:38:01;11.80;99.90
45619;DHT22;31343;47.520;19.144;2023-05-08T04:40:26;11.70;99.90
45619;DHT22;31343;47.520;19.144;2023-05-08T04:42:52;11.90;99.90
45619;DHT22;31343;47.520;19.144;2023-05-08T04:45:18;11.80;99.90
45619;DHT22;31343;47.520;19.144;2023-05-08T04:47:44;11.90;99.90
45619;DHT22;31343;47.520;19.144;2023-05-08T04:50:10;11.80;99.90
45619;DHT22;31343;47.520;19.144;2023-05-08T04:52:36;11.80;99.90
45619;DHT22;31343;47.520;19.144;2023-05-08T04:55:02;11.80;99.90
45619;DHT22;31343;47.520;19.144;2023-05-08T04:57:27;11.80;99.90
45619;DHT22;31343;47.520;19.144;2023-05-08T04:59:53;11.80;99.90
45619;DHT22;31343;47.520;19.144;2023-05-08T05:02:19;11.80;99.90
45619;DHT22;31343;47.520;19.144;2023-05-08T05:04:44;11.90;99.90
45619;DHT22;31343;47.520;19.144;2023-05-08T05:07:10;11.80;99.90
45619;DHT22;31343;47.520;19.144;2023-05-08T05:09:36;11.80;99.90
45619;DHT22;31343;47.520;19.144;2023-05-08T05:12:04;11.90;99.90
45619;DHT22;31343;47.520;19.144;2023-05-08T05:14:30;11.90;99.90
45619;DHT22;31343;47.520;19.144;2023-05-08T05:16:55;11.90;99.90
45619;DHT22;31343;47.520;19.144;2023-05-08T05:19:21;12.00;99.90
45619;DHT22;31343;47.520;19.144;2023-05-08T05:21:47;12.10;99.90
45619;DHT22;31343;47.520;19.144;2023-05-08T05:24:12;12.00;99.90
45619;DHT22;31343;47.520;19.144;2023-05-08T05:26:38;12.10;99.90
45619;DHT22;31343;47.520;19.144;2023-05-08T05:29:04;12.10;99.90
45619;DHT22;31343;47.520;19.144;2023-05-08T05:31:30;12.20;99.90
45619;DHT22;31343;47.520;19.144;2023-05-08T05:33:56;12.20;99.90
45619;DHT22;31343;47.520;19.144;2023-05-08T05:36:22;12.20;99.90
45619;DHT22;31343;47.520;19.144;2023-05-08T05:38:47;12.20;99.90
45619;DHT22;31343;47.520;19.144;2023-05-08T05:41:13;12.30;99.90
45619;DHT22;31343;47.520;19.144;2023-05-08T05:43:39;12.30;99.90
45619;DHT22;31343;47.520;19.144;2023-05-08T05:46:06;12.30;99.90
45619;DHT22;31343;47.520;19.144;2023-05-08T05:48:32;12.30;99.90
45619;DHT22;31343;47.520;19.144;2023-05-08T05:50:58;12.30;99.90
45619;DHT22;31343;47.520;19.144;2023-05-08T05:53:24;12.40;99.90
45619;DHT22;31343;47.520;19.144;2023-05-08T05:55:50;12.40;99.90
45619;DHT22;31343;47.520;19.144;2023-05-08T05:58:16;12.30;99.90
45619;DHT22;31343;47.520;19.144;2023-05-08T06:00:42;12.50;99.90
45619;DHT22;31343;47.520;19.144;2023-05-08T06:03:08;12.50;99.90
45619;DHT22;31343;47.520;19.144;2023-05-08T06:05:35;12.60;99.90
45619;DHT22;31343;47.520;19.144;2023-05-08T06:08:02;12.80;99.80
45619;DHT22;31343;47.520;19.144;2023-05-08T06:10:28;12.70;99.40
45619;DHT22;31343;47.520;19.144;2023-05-08T06:12:54;12.70;99.60
45619;DHT22;31343;47.520;19.144;2023-05-08T06:15:20;12.70;99.30
45619;DHT22;31343;47.520;19.144;2023-05-08T06:17:46;12.80;99.60
45619;DHT22;31343;47.520;19.144;2023-05-08T06:20:12;13.00;99.40
45619;DHT22;31343;47.520;19.144;2023-05-08T06:22:37;13.20;99.00
45619;DHT22;31343;47.520;19.144;2023-05-08T06:25:05;13.30;98.50
45619;DHT22;31343;47.520;19.144;2023-05-08T06:27:34;13.40;98.00
45619;DHT22;31343;47.520;19.144;2023-05-08T06:30:00;13.50;97.80
45619;DHT22;31343;47.520;19.144;2023-05-08T06:32:26;13.40;97.40
45619;DHT22;31343;47.520;19.144;2023-05-08T06:34:51;13.50;97.00
45619;DHT22;31343;47.520;19.144;2023-05-08T06:37:17;13.40;96.90
45619;DHT22;31343;47.520;19.144;2023-05-08T06:39:43;13.40;96.50
45619;DHT22;31343;47.520;19.144;2023-05-08T06:42:09;13.60;96.40
45619;DHT22;31343;47.520;19.144;2023-05-08T06:44:35;13.80;96.50
45619;DHT22;31343;47.520;19.144;2023-05-08T06:47:01;14.00;94.90
45619;DHT22;31343;47.520;19.144;2023-05-08T06:49:27;14.30;94.90
45619;DHT22;31343;47.520;19.144;2023-05-08T06:51:53;14.70;93.80
45619;DHT22;31343;47.520;19.144;2023-05-08T06:54:18;14.90;92.80
45619;DHT22;31343;47.520;19.144;2023-05-08T06:56:44;15.50;91.90
45619;DHT22;31343;47.520;19.144;2023-05-08T06:59:10;16.00;91.30
45619;DHT22;31343;47.520;19.144;2023-05-08T07:01:36;16.50;90.90
45619;DHT22;31343;47.520;19.144;2023-05-08T07:04:02;16.80;90.00
45619;DHT22;31343;47.520;19.144;2023-05-08T07:06:29;16.50;89.40
45619;DHT22;31343;47.520;19.144;2023-05-08T07:08:56;16.60;90.30
45619;DHT22;31343;47.520;19.144;2023-05-08T07:11:22;16.90;89.80
45619;DHT22;31343;47.520;19.144;2023-05-08T07:13:47;18.00;87.50
45619;DHT22;31343;47.520;19.144;2023-05-08T07:16:14;19.00;86.30
45619;DHT22;31343;47.520;19.144;2023-05-08T07:18:40;20.20;81.20
45619;DHT22;31343;47.520;19.144;2023-05-08T07:21:06;20.50;76.80
45619;DHT22;31343;47.520;19.144;2023-05-08T07:23:33;20.40;78.60
45619;DHT22;31343;47.520;19.144;2023-05-08T07:25:59;20.90;77.30
45619;DHT22;31343;47.520;19.144;2023-05-08T07:28:25;21.00;75.00
45619;DHT22;31343;47.520;19.144;2023-05-08T07:30:51;21.30;76.20
45619;DHT22;31343;47.520;19.144;2023-05-08T07:33:17;21.30;73.60
45619;DHT22;31343;47.520;19.144;2023-05-08T07:35:43;20.00;74.40
45619;DHT22;31343;47.520;19.144;2023-05-08T07:38:09;19.70;76.80
45619;DHT22;31343;47.520;19.144;2023-05-08T07:40:35;20.00;77.30
45619;DHT22;31343;47.520;19.144;2023-05-08T07:43:00;20.10;76.50
45619;DHT22;31343;47.520;19.144;2023-05-08T07:45:26;20.60;76.60
45619;DHT22;31343;47.520;19.144;2023-05-08T07:47:54;21.10;76.10
45619;DHT22;31343;47.520;19.144;2023-05-08T07:50:20;21.60;73.50
45619;DHT22;31343;47.520;19.144;2023-05-08T07:52:47;22.10;73.80
45619;DHT22;31343;47.520;19.144;2023-05-08T07:55:13;21.70;72.30
45619;DHT22;31343;47.520;19.144;2023-05-08T07:57:40;22.20;72.20
45619;DHT22;31343;47.520;19.144;2023-05-08T08:00:11;22.00;72.20
45619;DHT22;31343;47.520;19.144;2023-05-08T08:02:37;21.60;71.90
45619;DHT22;31343;47.520;19.144;2023-05-08T08:05:04;20.60;75.40
45619;DHT22;31343;47.520;19.144;2023-05-08T08:07:30;21.30;73.60
45619;DHT22;31343;47.520;19.144;2023-05-08T08:09:59;21.30;73.60
45619;DHT22;31343;47.520;19.144;2023-05-08T08:12:25;21.80;72.80
45619;DHT22;31343;47.520;19.144;2023-05-08T08:14:51;22.00;73.30
45619;DHT22;31343;47.520;19.144;2023-05-08T08:17:17;22.30;71.70
45619;DHT22;31343;47.520;19.144;2023-05-08T08:19:42;22.40;69.70
45619;DHT22;31343;47.520;19.144;2023-05-08T08:22:08;22.30;71.10
45619;DHT22;31343;47.520;19.144;2023-05-08T08:24:34;22.70;70.00
45619;DHT22;31343;47.520;19.144;2023-05-08T08:27:01;22.40;68.50
45619;DHT22;31343;47.520;19.144;2023-05-08T08:29:27;22.10;70.40
45619;DHT22;31343;47.520;19.144;2023-05-08T08:31:52;22.60;70.00
45619;DHT22;31343;47.520;19.144;2023-05-08T08:34:18;22.40;68.60
45619;DHT22;31343;47.520;19.144;2023-05-08T08:36:44;22.10;68.30
45619;DHT22;31343;47.520;19.144;2023-05-08T08:39:10;21.40;68.10
45619;DHT22;31343;47.520;19.144;2023-05-08T08:41:37;21.60;70.10
45619;DHT22;31343;47.520;19.144;2023-05-08T08:44:06;21.90;70.80
45619;DHT22;31343;47.520;19.144;2023-05-08T08:46:32;21.80;69.50
45619;DHT22;31343;47.520;19.144;2023-05-08T08:49:02;21.80;68.00
45619;DHT22;31343;47.520;19.144;2023-05-08T08:51:36;21.90;68.00
45619;DHT22;31343;47.520;19.144;2023-05-08T08:54:16;21.90;66.60
45619;DHT22;31343;47.520;19.144;2023-05-08T08:56:44;21.00;66.70
45619;DHT22;31343;47.520;19.144;2023-05-08T08:59:12;21.30;68.40
45619;DHT22;31343;47.520;19.144;2023-05-08T09:01:39;20.60;68.60
45619;DHT22;31343;47.520;19.144;2023-05-08T09:04:05;20.60;68.30
45619;DHT22;31343;47.520;19.144;2023-05-08T09:06:35;20.20;68.30
45619;DHT22;31343;47.520;19.144;2023-05-08T09:09:02;20.30;70.40
45619;DHT22;31343;47.520;19.144;2023-05-08T09:11:29;20.50;70.60
45619;DHT22;31343;47.520;19.144;2023-05-08T09:13:55;20.60;69.80
45619;DHT22;31343;47.520;19.144;2023-05-08T09:16:21;20.20;67.90
45619;DHT22;31343;47.520;19.144;2023-05-08T09:18:47;20.20;70.10
45619;DHT22;31343;47.520;19.144;2023-05-08T09:21:13;20.30;68.00
45619;DHT22;31343;47.520;19.144;2023-05-08T09:23:59;19.30;70.00
45619;DHT22;31343;47.520;19.144;2023-05-08T09:26:36;19.30;70.00
45619;DHT22;31343;47.520;19.144;2023-05-08T09:29:19;19.20;71.60
45619;DHT22;31343;47.520;19.144;2023-05-08T09:31:48;19.30;71.30
45619;DHT22;31343;47.520;19.144;2023-05-08T09:34:28;19.10;71.20
45619;DHT22;31343;47.520;19.144;2023-05-08T09:36:55;19.30;73.40
45619;DHT22;31343;47.520;19.144;2023-05-08T09:39:24;19.40;71.30
45619;DHT22;31343;47.520;19.144;2023-05-08T09:41:58;19.50;72.10
45619;DHT22;31343;47.520;19.144;2023-05-08T09:44:23;19.90;71.20
45619;DHT22;31343;47.520;19.144;2023-05-08T09:46:49;19.90;70.40
45619;DHT22;31343;47.520;19.144;2023-05-08T09:49:18;19.90;70.80
45619;DHT22;31343;47.520;19.144;2023-05-08T09:51:51;20.10;71.30
45619;DHT22;31343;47.520;19.144;2023-05-08T09:54:20;20.30;71.10
45619;DHT22;31343;47.520;19.144;2023-05-08T09:56:46;20.50;70.30
45619;DHT22;31343;47.520;19.144;2023-05-08T09:59:28;20.60;71.00
45619;DHT22;31343;47.520;19.144;2023-05-08T10:01:55;20.60;70.00
45619;DHT22;31343;47.520;19.144;2023-05-08T10:04:32;20.40;68.90
45619;DHT22;31343;47.520;19.144;2023-05-08T10:06:58;20.20;68.70
45619;DHT22;31343;47.520;19.144;2023-05-08T10:09:24;19.80;71.80
45619;DHT22;31343;47.520;19.144;2023-05-08T10:11:51;20.10;71.60
45619;DHT22;31343;47.520;19.144;2023-05-08T10:14:17;20.40;71.50
45619;DHT22;31343;47.520;19.144;2023-05-08T10:16:44;20.70;71.30
45619;DHT22;31343;47.520;19.144;2023-05-08T10:19:15;20.80;68.60
45619;DHT22;31343;47.520;19.144;2023-05-08T10:21:44;20.70;69.00
45619;DHT22;31343;47.520;19.144;2023-05-08T10:24:14;20.60;69.20
45619;DHT22;31343;47.520;19.144;2023-05-08T10:26:43;20.60;68.00
45619;DHT22;31343;47.520;19.144;2023-05-08T10:29:17;20.80;67.50
45619;DHT22;31343;47.520;19.144;2023-05-08T10:31:47;21.00;67.50
45619;DHT22;31343;47.520;19.144;2023-05-08T10:34:18;21.20;68.40
45619;DHT22;31343;47.520;19.144;2023-05-08T10:36:46;21.20;67.40
45619;DHT22;31343;47.520;19.144;2023-05-08T10:39:13;21.50;68.40
45619;DHT22;31343;47.520;19.144;2023-05-08T10:41:41;21.70;66.10
45619;DHT22;31343;47.520;19.144;2023-05-08T10:44:08;22.00;64.70
45619;DHT22;31343;47.520;19.144;2023-05-08T10:46:53;22.20;64.10
45619;DHT22;31343;47.520;19.144;2023-05-08T10:52:51;22.80;64.90
45619;DHT22;31343;47.520;19.144;2023-05-08T10:55:24;23.00;62.60
45619;DHT22;31343;47.520;19.144;2023-05-08T10:58:12;23.30;62.10
45619;DHT22;31343;47.520;19.144;2023-05-08T11:03:18;24.30;61.70
45619;DHT22;31343;47.520;19.144;2023-05-08T11:05:45;23.50;60.20
45619;DHT22;31343;47.520;19.144;2023-05-08T11:08:19;24.20;61.10
45619;DHT22;31343;47.520;19.144;2023-05-08T11:16:07;25.70;58.60
45619;DHT22;31343;47.520;19.144;2023-05-08T11:18:35;26.70;57.80
45619;DHT22;31343;47.520;19.144;2023-05-08T11:21:05;27.20;55.70
45619;DHT22;31343;47.520;19.144;2023-05-08T11:23:38;27.70;55.40
45619;DHT22;31343;47.520;19.144;2023-05-08T11:26:13;27.70;54.00
45619;DHT22;31343;47.520;19.144;2023-05-08T11:28:55;26.50;54.20
45619;DHT22;31343;47.520;19.144;2023-05-08T11:31:23;27.20;54.00
45619;DHT22;31343;47.520;19.144;2023-05-08T11:37:19;27.10;54.20
45619;DHT22;31343;47.520;19.144;2023-05-08T11:39:46;27.80;54.70
45619;DHT22;31343;47.520;19.144;2023-05-08T11:47:40;27.90;50.70
45619;DHT22;31343;47.520;19.144;2023-05-08T11:50:10;27.30;52.20
45619;DHT22;31343;47.520;19.144;2023-05-08T11:52:38;27.50;50.40
45619;DHT22;31343;47.520;19.144;2023-05-08T11:55:08;27.00;51.20
45619;DHT22;31343;47.520;19.144;2023-05-08T11:57:34;26.10;52.60
45619;DHT22;31343;47.520;19.144;2023-05-08T12:00:10;26.80;52.30
45619;DHT22;31343;47.520;19.144;2023-05-08T12:02:38;27.50;51.30
45619;DHT22;31343;47.520;19.144;2023-05-08T12:05:05;27.70;50.50
45619;DHT22;31343;47.520;19.144;2023-05-08T12:07:31;25.80;50.40
45619;DHT22;31343;47.520;19.144;2023-05-08T12:10:00;25.50;52.60
45619;DHT22;31343;47.520;19.144;2023-05-08T12:12:36;26.70;53.60
45619;DHT22;31343;47.520;19.144;2023-05-08T12:15:06;26.30;51.60
45619;DHT22;31343;47.520;19.144;2023-05-08T12:17:32;26.70;51.00
45619;DHT22;31343;47.520;19.144;2023-05-08T12:22:34;27.60;50.60
45619;DHT22;31343;47.520;19.144;2023-05-08T12:25:01;28.10;49.10
45619;DHT22;31343;47.520;19.144;2023-05-08T12:27:27;26.10;50.60
45619;DHT22;31343;47.520;19.144;2023-05-08T12:29:53;26.20;51.80
45619;DHT22;31343;47.520;19.144;2023-05-08T12:32:19;27.30;52.10
45619;DHT22;31343;47.520;19.144;2023-05-08T12:34:45;28.30;50.00
45619;DHT22;31343;47.520;19.144;2023-05-08T12:37:11;29.20;49.50
45619;DHT22;31343;47.520;19.144;2023-05-08T12:39:47;26.90;49.30
45619;DHT22;31343;47.520;19.144;2023-05-08T12:42:12;26.10;50.30
45619;DHT22;31343;47.520;19.144;2023-05-08T12:44:38;26.10;50.70
45619;DHT22;31343;47.520;19.144;2023-05-08T12:47:04;26.80;50.10
45619;DHT22;31343;47.520;19.144;2023-05-08T12:49:31;26.00;50.60
45619;DHT22;31343;47.520;19.144;2023-05-08T12:52:03;25.60;51.70
45619;DHT22;31343;47.520;19.144;2023-05-08T12:54:33;25.40;50.50
45619;DHT22;31343;47.520;19.144;2023-05-08T12:56:59;24.40;50.30
45619;DHT22;31343;47.520;19.144;2023-05-08T12:59:30;24.00;51.30
45619;DHT22;31343;47.520;19.144;2023-05-08T13:01:56;24.20;51.60
45619;DHT22;31343;47.520;19.144;2023-05-08T13:04:22;24.20;50.90
45619;DHT22;31343;47.520;19.144;2023-05-08T13:06:56;23.30;50.70
45619;DHT22;31343;47.520;19.144;2023-05-08T13:09:22;22.50;52.10
45619;DHT22;31343;47.520;19.144;2023-05-08T13:11:48;21.80;51.70
45619;DHT22;31343;47.520;19.144;2023-05-08T13:14:14;21.70;52.40
45619;DHT22;31343;47.520;19.144;2023-05-08T13:16:44;21.60;52.00
45619;DHT22;31343;47.520;19.144;2023-05-08T13:19:10;21.90;54.30
45619;DHT22;31343;47.520;19.144;2023-05-08T13:21:36;22.40;54.20
45619;DHT22;31343;47.520;19.144;2023-05-08T13:24:01;22.40;52.80
45619;DHT22;31343;47.520;19.144;2023-05-08T13:26:27;22.20;53.80
45619;DHT22;31343;47.520;19.144;2023-05-08T13:28:53;22.20;53.00
45619;DHT22;31343;47.520;19.144;2023-05-08T13:31:19;22.30;51.80
45619;DHT22;31343;47.520;19.144;2023-05-08T13:33:45;22.40;52.00
45619;DHT22;31343;47.520;19.144;2023-05-08T13:36:10;22.40;51.20
45619;DHT22;31343;47.520;19.144;2023-05-08T13:38:36;22.20;52.10
45619;DHT22;31343;47.520;19.144;2023-05-08T13:41:02;21.40;51.50
45619;DHT22;31343;47.520;19.144;2023-05-08T13:43:27;21.50;53.00
45619;DHT22;31343;47.520;19.144;2023-05-08T13:45:53;21.70;53.00
45619;DHT22;31343;47.520;19.144;2023-05-08T13:48:20;21.30;51.00
45619;DHT22;31343;47.520;19.144;2023-05-08T13:50:46;21.60;52.60
45619;DHT22;31343;47.520;19.144;2023-05-08T13:53:11;21.60;51.70
45619;DHT22;31343;47.520;19.144;2023-05-08T13:55:37;21.40;51.90
45619;DHT22;31343;47.520;19.144;2023-05-08T13:58:03;21.10;51.10
45619;DHT22;31343;47.520;19.144;2023-05-08T14:00:29;20.50;51.60
45619;DHT22;31343;47.520;19.144;2023-05-08T14:02:55;20.70;51.80
45619;DHT22;31343;47.520;19.144;2023-05-08T14:05:20;21.10;54.00
45619;DHT22;31343;47.520;19.144;2023-05-08T14:07:46;21.20;50.70
45619;DHT22;31343;47.520;19.144;2023-05-08T14:10:12;21.20;48.80
45619;DHT22;31343;47.520;19.144;2023-05-08T14:12:38;20.90;49.10
45619;DHT22;31343;47.520;19.144;2023-05-08T14:15:05;20.70;49.40
45619;DHT22;31343;47.520;19.144;2023-05-08T14:17:31;20.40;49.80
45619;DHT22;31343;47.520;19.144;2023-05-08T14:19:57;20.30;50.80
45619;DHT22;31343;47.520;19.144;2023-05-08T14:22:22;20.20;50.60
45619;DHT22;31343;47.520;19.144;2023-05-08T14:24:48;20.20;50.20
45619;DHT22;31343;47.520;19.144;2023-05-08T14:27:14;20.20;51.70
45619;DHT22;31343;47.520;19.144;2023-05-08T14:29:40;20.40;51.20
45619;DHT22;31343;47.520;19.144;2023-05-08T14:32:06;20.10;49.90
45619;DHT22;31343;47.520;19.144;2023-05-08T14:34:33;19.90;49.90
45619;DHT22;31343;47.520;19.144;2023-05-08T14:36:59;19.70;50.00
45619;DHT22;31343;47.520;19.144;2023-05-08T14:39:25;19.90;50.90
45619;DHT22;31343;47.520;19.144;2023-05-08T14:41:51;20.10;51.90
45619;DHT22;31343;47.520;19.144;2023-05-08T14:44:17;20.40;49.70
45619;DHT22;31343;47.520;19.144;2023-05-08T14:46:43;20.60;49.70
45619;DHT22;31343;47.520;19.144;2023-05-08T14:49:08;20.60;50.90
45619;DHT22;31343;47.520;19.144;2023-05-08T14:51:34;20.70;49.70
45619;DHT22;31343;47.520;19.144;2023-05-08T14:54:00;20.50;50.10
45619;DHT22;31343;47.520;19.144;2023-05-08T14:56:26;20.50;51.00
45619;DHT22;31343;47.520;19.144;2023-05-08T14:58:52;20.40;51.70
45619;DHT22;31343;47.520;19.144;2023-05-08T15:01:20;20.50;52.00
45619;DHT22;31343;47.520;19.144;2023-05-08T15:03:47;20.20;52.00
45619;DHT22;31343;47.520;19.144;2023-05-08T15:06:19;19.70;51.30
45619;DHT22;31343;47.520;19.144;2023-05-08T15:08:45;19.60;49.70
45619;DHT22;31343;47.520;19.144;2023-05-08T15:11:11;19.70;51.30
45619;DHT22;31343;47.520;19.144;2023-05-08T15:13:38;19.60;54.30
45619;DHT22;31343;47.520;19.144;2023-05-08T15:16:04;19.70;55.00
45619;DHT22;31343;47.520;19.144;2023-05-08T15:18:30;19.80;55.40
45619;DHT22;31343;47.520;19.144;2023-05-08T15:20:56;19.80;52.40
45619;DHT22;31343;47.520;19.144;2023-05-08T15:23:24;19.80;53.30
45619;DHT22;31343;47.520;19.144;2023-05-08T15:25:50;20.00;53.10
45619;DHT22;31343;47.520;19.144;2023-05-08T15:28:16;20.10;53.20
45619;DHT22;31343;47.520;19.144;2023-05-08T15:30:45;20.10;53.60
45619;DHT22;31343;47.520;19.144;2023-05-08T15:33:11;20.10;54.40
45619;DHT22;31343;47.520;19.144;2023-05-08T15:35:37;20.20;53.90
45619;DHT22;31343;47.520;19.144;2023-05-08T15:38:03;20.30;55.00
45619;DHT22;31343;47.520;19.144;2023-05-08T15:40:32;19.90;55.80
45619;DHT22;31343;47.520;19.144;2023-05-08T15:42:58;19.90;56.50
45619;DHT22;31343;47.520;19.144;2023-05-08T15:45:24;19.60;58.50
45619;DHT22;31343;47.520;19.144;2023-05-08T15:47:50;19.20;57.20
45619;DHT22;31343;47.520;19.144;2023-05-08T15:50:16;19.10;58.20
45619;DHT22;31343;47.520;19.144;2023-05-08T15:52:42;19.20;57.80
45619;DHT22;31343;47.520;19.144;2023-05-08T15:55:08;19.20;58.50
45619;DHT22;31343;47.520;19.144;2023-05-08T15:57:33;19.20;61.10
45619;DHT22;31343;47.520;19.144;2023-05-08T15:59:59;19.10;62.20
45619;DHT22;31343;47.520;19.144;2023-05-08T16:02:25;18.80;63.50
45619;DHT22;31343;47.520;19.144;2023-05-08T16:04:51;18.60;64.20
45619;DHT22;31343;47.520;19.144;2023-05-08T16:07:16;18.50;64.40
45619;DHT22;31343;47.520;19.144;2023-05-08T16:09:42;18.50;64.80